• Join FlightAware (Why Join?)
  • Login
  • US Flag 
10:20AM EDT


 

Airport Tracker/Info


-or-


 

Live Flight TrackerFlight Track Log ✈ A6-EGC ✈ 01-May-2013 ✈ OMDB / DXB - RJBB / KIX

Flight Track Log - Related Links

Times and Time Zones

All times are in EDT time to prevent confusion due to time zone crossing. See the A6-EGC flight status page for this flight to view local times or setup timezone preferences in your user account.

Time Position Orientation Groundspeed Altitude Reporting Facility
EDT Latitude Longitude Course Direction KTS MPH feet Rate Location/Type
07:45PM 25.2330 55.4000 124° Southeast 196 226 1,000  Level FlightAware
07:46PM 25.2210 55.4210 122° Southeast 198 228 2,000 1,080 Climbing FlightAware
07:46PM 25.2110 55.4420 118° Southeast 198 228 2,000 420 Level FlightAware
07:49PM 25.3539 55.7283 61° Northeast  Level Estimated
07:50PM 25.4159 55.8530 61° Northeast  Level Estimated
07:51PM 25.4777 55.9778 61° Northeast  Level Estimated
07:52PM 25.5395 56.1027 61° Northeast  Level Estimated
07:53PM 25.5996 56.2248 61° Northeast  Level Estimated
07:54PM 25.6597 56.3470 61° Northeast  Level Estimated
07:55PM 25.7197 56.4693 61° Northeast  Level Estimated
07:56PM 25.7796 56.5918 61° Northeast  Level Estimated
07:57PM 25.8393 56.7143 62° Northeast  Level Estimated
07:58PM 25.8990 56.8370 62° Northeast  Level Estimated
07:59PM 25.9585 56.9598 62° Northeast  Level Estimated
08:00PM 26.0180 57.0828 62° Northeast  Level Estimated
08:01PM 26.0773 57.2058 62° Northeast  Level Estimated
08:02PM 26.1366 57.3290 62° Northeast  Level Estimated
08:03PM 26.1957 57.4523 62° Northeast  Level Estimated
08:04PM 26.2547 57.5758 62° Northeast  Level Estimated
08:05PM 26.3137 57.6993 62° Northeast  Level Estimated
08:06PM 26.3725 57.8230 62° Northeast  Level Estimated
08:07PM 26.4312 57.9468 62° Northeast  Level Estimated
08:08PM 26.4898 58.0708 62° Northeast  Level Estimated
08:09PM 26.5483 58.1949 62° Northeast  Level Estimated
08:10PM 26.6067 58.3190 62° Northeast  Level Estimated
08:11PM 26.6650 58.4434 62° Northeast  Level Estimated
08:12PM 26.7232 58.5678 62° Northeast  Level Estimated
08:13PM 26.7813 58.6924 62° Northeast  Level Estimated
08:14PM 26.8392 58.8171 62° Northeast  Level Estimated
08:15PM 26.8971 58.9419 63° Northeast  Level Estimated
08:16PM 26.9548 59.0669 63° Northeast  Level Estimated
08:17PM 27.0124 59.1920 63° Northeast  Level Estimated
08:18PM 27.0700 59.3172 63° Northeast  Level Estimated
08:19PM 27.1274 59.4425 63° Northeast  Level Estimated
08:20PM 27.1847 59.5680 63° Northeast  Level Estimated
08:21PM 27.2419 59.6936 63° Northeast  Level Estimated
08:22PM 27.2989 59.8193 63° Northeast  Level Estimated
08:23PM 27.3559 59.9452 63° Northeast  Level Estimated
08:24PM 27.4128 60.0712 63° Northeast  Level Estimated
08:25PM 27.4695 60.1973 63° Northeast  Level Estimated
08:26PM 27.5261 60.3236 63° Northeast  Level Estimated
08:27PM 27.5826 60.4499 63° Northeast  Level Estimated
08:28PM 27.6390 60.5764 63° Northeast  Level Estimated
08:29PM 27.6953 60.7031 63° Northeast  Level Estimated
08:30PM 27.7514 60.8298 63° Northeast  Level Estimated
08:31PM 27.8075 60.9567 63° Northeast  Level Estimated
08:32PM 27.8634 61.0838 64° Northeast  Level Estimated
08:33PM 27.9192 61.2109 64° Northeast  Level Estimated
08:34PM 27.9749 61.3382 64° Northeast  Level Estimated
08:35PM 28.0305 61.4656 64° Northeast  Level Estimated
08:36PM 28.0860 61.5932 64° Northeast  Level Estimated
08:37PM 28.1413 61.7209 64° Northeast  Level Estimated
08:38PM 28.1966 61.8487 64° Northeast  Level Estimated
08:39PM 28.2517 61.9767 64° Northeast  Level Estimated
08:40PM 28.3067 62.1048 64° Northeast  Level Estimated
08:41PM 28.3615 62.2330 64° Northeast  Level Estimated
08:42PM 28.4163 62.3613 64° Northeast  Level Estimated
08:43PM 28.4709 62.4898 64° Northeast  Level Estimated
08:44PM 28.5254 62.6184 64° Northeast  Level Estimated
08:45PM 28.5798 62.7472 64° Northeast  Level Estimated
08:46PM 28.6341 62.8760 64° Northeast  Level Estimated
08:47PM 28.6882 63.0051 64° Northeast  Level Estimated
08:47PM 24.1400 64.5440 64° Northeast 525 604 31,000  Level FlightAware
08:48PM 28.7422 63.1342 64° Northeast  Level Estimated
08:48PM 24.1410 64.6280 89° East 526 605 31,000  Level FlightAware
08:48PM 24.1420 64.7570 89° East 528 608 31,000  Level FlightAware
08:49PM 24.1420 64.8750 90° East 529 609 31,000  Level FlightAware
08:50PM 24.1430 64.9800 89° East 529 609 31,000  Level FlightAware
08:50PM 24.1440 65.0880 89° East 527 606 31,000  Level FlightAware
08:51PM 24.1440 65.2080 90° East 526 605 31,000  Level FlightAware
08:52PM 24.1450 65.3170 89° East 525 604 31,000  Level FlightAware
08:53PM 24.1450 65.4330 90° East 525 604 31,000  Level FlightAware
08:53PM 24.1450 65.5400 90° East 526 605 31,000  Level FlightAware
08:54PM 24.1450 65.6600 90° East 527 606 31,000  Level FlightAware
08:55PM 24.1450 65.7660 90° East 527 606 31,000  Level FlightAware
08:55PM 24.1450 65.8670 90° East 528 608 31,000  Level FlightAware
08:56PM 24.1450 65.9930 90° East 530 610 31,000  Level FlightAware
08:57PM 24.1450 66.0990 90° East 530 610 31,000  Level FlightAware
08:57PM 24.1450 66.2060 90° East 531 611 31,000  Level FlightAware
08:58PM 24.1450 66.3260 90° East 532 612 31,000  Level FlightAware
08:59PM 24.1440 66.4370 91° East 532 612 31,000  Level FlightAware
09:00PM 24.1440 66.5570 90° East 531 611 31,000  Level FlightAware
09:00PM 24.1430 66.6630 91° East 532 612 31,000  Level FlightAware
09:01PM 24.1430 66.7720 90° East 532 612 31,000  Level FlightAware
09:02PM 24.1420 66.8950 90° East 532 612 31,000  Level FlightAware
09:02PM 24.1410 67.0130 91° East 533 613 31,000  Level FlightAware
09:03PM 24.1400 67.1190 91° East 534 615 31,000  Level FlightAware
09:04PM 24.1390 67.2280 91° East 534 615 31,000  Level FlightAware
09:05PM 24.1380 67.3510 90° East 535 616 31,000  Level FlightAware
09:05PM 24.1370 67.4610 91° East 535 616 31,000  Level FlightAware
09:06PM 24.1360 67.5700 91° East 535 616 31,000  Level FlightAware
09:07PM 24.1340 67.6870 91° East 536 617 31,000  Level FlightAware
09:07PM 24.1330 67.7970 91° East 536 617 31,000  Level FlightAware
09:08PM 24.1310 67.9040 91° East 536 617 31,000  Level FlightAware
09:09PM 24.1300 68.0270 90° East 537 618 31,000  Level FlightAware
09:09PM 24.1280 68.1380 91° East 537 618 31,000  Level FlightAware
09:10PM 24.1260 68.2570 91° East 539 620 31,000  Level FlightAware
09:11PM 24.1240 68.3670 91° East 539 620 31,000  Level FlightAware
09:12PM 24.1220 68.4890 91° East 540 621 31,000  Level FlightAware
09:12PM 24.1200 68.6020 91° East 541 623 31,000  Level FlightAware
09:13PM 24.1180 68.7080 91° East 542 624 31,000  Level FlightAware
09:14PM 24.1160 68.8300 91° East 544 626 31,000  Level FlightAware
09:14PM 24.1110 68.9430 93° East 545 627 31,000  Level FlightAware
09:15PM 24.1060 69.0600 93° East 546 628 31,000  Level FlightAware
09:16PM 24.1010 69.1760 93° East 546 628 31,000  Level FlightAware
09:16PM 24.0970 69.2860 92° East 546 628 31,000  Level FlightAware
09:17PM 24.0920 69.4110 92° East 546 628 31,000  Level FlightAware
09:18PM 24.0880 69.5230 92° East 547 629 31,000  Level FlightAware
09:19PM 24.0820 69.6440 93° East 547 629 31,000  Level FlightAware
09:19PM 24.0770 69.7710 92° East 547 629 31,000  Level FlightAware
09:20PM 24.0720 69.8830 93° East 546 628 31,000  Level FlightAware
09:21PM 24.0670 69.9940 93° East 546 628 31,000  Level FlightAware
09:21PM 24.0620 70.1020 93° East 546 628 31,000  Level FlightAware
09:22PM 24.0570 70.2230 93° East 547 629 31,000  Level FlightAware
09:23PM 24.0520 70.3270 93° East 547 629 31,000  Level FlightAware
09:23PM 24.0480 70.4420 92° East 547 629 31,000  Level FlightAware
09:24PM 24.0450 70.5360 92° East 547 629 31,000  Level FlightAware
09:25PM 24.0420 70.6300 92° East 547 629 31,000  Level FlightAware
09:25PM 24.0390 70.7240 92° East 547 629 31,000  Level FlightAware
09:26PM 24.0360 70.8190 92° East 547 629 31,000  Level FlightAware
09:27PM 24.0320 70.9360 92° East 547 629 31,000  Level FlightAware
09:28PM 24.0290 71.0300 92° East 547 629 31,000  Level FlightAware
09:28PM 24.0260 71.1250 92° East 547 629 31,000  Level FlightAware
09:29PM 24.0230 71.2190 92° East 547 629 31,000  Level FlightAware
09:30PM 24.0190 71.3360 92° East 547 629 31,000  Level FlightAware
09:30PM 24.0160 71.4300 92° East 547 629 31,000  Level FlightAware
09:31PM 24.0130 71.5250 92° East 547 629 31,000  Level FlightAware
09:32PM 24.0100 71.6190 92° East 547 629 31,000  Level FlightAware
09:32PM 24.0070 71.7130 92° East 547 629 31,000  Level FlightAware
09:35PM 24.1213 71.9654 64° Northeast  Level Estimated
09:36PM 24.1768 72.0887 64° Northeast  Level Estimated
09:37PM 24.2323 72.2121 64° Northeast  Level Estimated
09:38PM 24.2877 72.3356 64° Northeast  Level Estimated
09:39PM 24.3430 72.4592 64° Northeast  Level Estimated
09:40PM 24.3982 72.5830 64° Northeast  Level Estimated
09:41PM 24.4533 72.7068 64° Northeast  Level Estimated
09:42PM 24.5083 72.8307 64° Northeast  Level Estimated
09:43PM 24.5632 72.9548 64° Northeast  Level Estimated
09:44PM 24.6180 73.0789 64° Northeast  Level Estimated
09:45PM 24.6726 73.2032 64° Northeast  Level Estimated
09:46PM 24.7272 73.3276 64° Northeast  Level Estimated
09:47PM 24.7817 73.4521 64° Northeast  Level Estimated
09:48PM 24.8361 73.5767 64° Northeast  Level Estimated
09:49PM 24.8903 73.7013 64° Northeast  Level Estimated
09:50PM 24.9445 73.8262 64° Northeast  Level Estimated
09:51PM 24.9986 73.9511 64° Northeast  Level Estimated
09:52PM 25.0525 74.0761 65° Northeast  Level Estimated
09:53PM 25.1064 74.2012 65° Northeast  Level Estimated
09:54PM 25.1601 74.3265 65° Northeast  Level Estimated
09:55PM 25.2138 74.4519 65° Northeast  Level Estimated
09:56PM 25.2673 74.5773 65° Northeast  Level Estimated
09:57PM 25.3207 74.7029 65° Northeast  Level Estimated
09:58PM 25.3741 74.8286 65° Northeast  Level Estimated
09:59PM 25.4273 74.9544 65° Northeast  Level Estimated
10:00PM 25.4804 75.0803 65° Northeast  Level Estimated
10:01PM 25.5334 75.2064 65° Northeast  Level Estimated
10:02PM 25.5863 75.3325 65° Northeast  Level Estimated
10:03PM 25.6391 75.4587 65° Northeast  Level Estimated
10:04PM 25.6917 75.5851 65° Northeast  Level Estimated
10:05PM 25.7443 75.7116 65° Northeast  Level Estimated
10:06PM 25.7968 75.8382 65° Northeast  Level Estimated
10:07PM 25.8491 75.9649 65° Northeast  Level Estimated
10:08PM 25.9014 76.0917 65° Northeast  Level Estimated
10:09PM 25.9535 76.2186 65° Northeast  Level Estimated
10:10PM 26.0055 76.3456 65° Northeast  Level Estimated
10:11PM 26.0574 76.4728 66° East  Level Estimated
10:12PM 26.1092 76.6000 66° East  Level Estimated
10:13PM 26.1609 76.7274 66° East  Level Estimated
10:14PM 26.2125 76.8549 66° East  Level Estimated
10:15PM 26.2639 76.9825 66° East  Level Estimated
10:16PM 26.3153 77.1102 66° East  Level Estimated
10:17PM 26.3665 77.2380 66° East  Level Estimated
10:18PM 26.4176 77.3659 66° East  Level Estimated
10:19PM 26.4686 77.4940 66° East  Level Estimated
10:20PM 26.5195 77.6221 66° East  Level Estimated
10:21PM 26.5703 77.7504 66° East  Level Estimated
10:22PM 26.6210 77.8788 66° East  Level Estimated
10:23PM 26.6715 78.0073 66° East  Level Estimated
10:24PM 26.7220 78.1359 66° East  Level Estimated
10:25PM 26.7723 78.2647 66° East  Level Estimated
10:26PM 26.8225 78.3935 66° East  Level Estimated
10:27PM 26.8725 78.5225 66° East  Level Estimated
10:28PM 26.9225 78.6516 67° East  Level Estimated
10:29PM 26.9723 78.7807 67° East  Level Estimated
10:30PM 27.0221 78.9100 67° East  Level Estimated
10:31PM 27.0717 79.0395 67° East  Level Estimated
10:32PM 27.1212 79.1690 67° East  Level Estimated
10:33PM 27.1705 79.2986 67° East  Level Estimated
10:34PM 27.2198 79.4284 67° East  Level Estimated
10:35PM 27.2689 79.5583 67° East  Level Estimated
10:36PM 27.3179 79.6883 67° East  Level Estimated
10:37PM 27.3668 79.8184 67° East  Level Estimated
10:38PM 27.4156 79.9486 67° East  Level Estimated
10:39PM 27.4643 80.0789 67° East  Level Estimated
10:40PM 27.5128 80.2094 67° East  Level Estimated
10:41PM 27.5612 80.3399 67° East  Level Estimated
10:42PM 27.6095 80.4706 67° East  Level Estimated
10:43PM 27.6576 80.6014 67° East  Level Estimated
10:44PM 27.7057 80.7323 67° East  Level Estimated
10:45PM 27.7536 80.8633 68° East  Level Estimated
10:46PM 27.8014 80.9945 68° East  Level Estimated
10:47PM 27.8491 81.1257 68° East  Level Estimated
10:48PM 27.8966 81.2571 68° East  Level Estimated
10:49PM 27.9440 81.3886 68° East  Level Estimated
10:50PM 27.9913 81.5202 68° East  Level Estimated
10:51PM 28.0385 81.6519 68° East  Level Estimated
10:52PM 28.0856 81.7837 68° East  Level Estimated
10:53PM 28.1325 81.9157 68° East  Level Estimated
10:54PM 28.1793 82.0478 68° East  Level Estimated
10:55PM 28.2259 82.1799 68° East  Level Estimated
10:56PM 28.2725 82.3122 68° East  Level Estimated
10:57PM 28.3189 82.4446 68° East  Level Estimated
10:58PM 28.3652 82.5771 68° East  Level Estimated
10:59PM 28.4113 82.7098 68° East  Level Estimated
11:00PM 28.4573 82.8426 68° East  Level Estimated
11:01PM 28.5032 82.9754 69° East  Level Estimated
11:02PM 28.5490 83.1084 69° East  Level Estimated
11:03PM 28.5947 83.2415 69° East  Level Estimated
11:04PM 28.6402 83.3747 69° East  Level Estimated
11:05PM 28.6855 83.5081 69° East  Level Estimated
11:06PM 28.7308 83.6415 69° East  Level Estimated
11:07PM 28.7759 83.7751 69° East  Level Estimated
11:08PM 28.8209 83.9088 69° East  Level Estimated
11:09PM 28.8657 84.0425 69° East  Level Estimated
11:10PM 28.9105 84.1765 69° East  Level Estimated
11:11PM 28.9550 84.3105 69° East  Level Estimated
11:12PM 28.9995 84.4446 69° East  Level Estimated
11:13PM 29.0438 84.5789 69° East  Level Estimated
11:13PM 22.7060 87.9870 69° East 513 590 35,000  Level FlightAware
11:13PM 22.7000 88.0800 94° East 514 592 35,000  Level FlightAware
11:14PM 29.0880 84.7132 69° East  Level Estimated
11:14PM 22.6930 88.1920 94° East 516 594 35,000  Level FlightAware
11:15PM 22.6850 88.3110 94° East 517 595 35,000  Level FlightAware
11:16PM 22.6780 88.4140 94° East 517 595 35,000  Level FlightAware
11:16PM 22.6630 88.5260 98° East 516 594 35,000  Level FlightAware
11:17PM 22.6470 88.6260 100° East 516 594 35,000  Level FlightAware
11:18PM 22.6270 88.7450 100° East 516 594 35,000  Level FlightAware
11:18PM 22.6100 88.8470 100° East 515 593 35,000  Level FlightAware
11:19PM 22.5920 88.9590 100° East 517 595 35,000  Level FlightAware
11:20PM 22.5810 89.0610 97° East 519 597 35,000  Level FlightAware
11:21PM 22.5680 89.1800 97° East 521 600 35,000  Level FlightAware
11:21PM 22.5580 89.2690 97° East 522 601 35,000  Level FlightAware
11:22PM 22.5450 89.3880 97° East 524 603 35,000  Level FlightAware
11:23PM 22.5310 89.5220 96° East 525 604 35,000  Level FlightAware
11:24PM 22.5220 89.6110 96° East 525 604 35,000  Level FlightAware
11:24PM 22.5130 89.7000 96° East 525 604 35,000  Level FlightAware
11:25PM 22.5030 89.8110 96° East 525 604 35,000  Level FlightAware
11:26PM 22.4780 89.9720 100° East 525 604 35,000  Level FlightAware
11:26PM 22.4650 90.0840 97° East 527 606 35,000  Level FlightAware
11:27PM 22.4530 90.1910 97° East 526 605 35,000  Level FlightAware
11:28PM 22.4410 90.2960 97° East 528 608 35,000  Level FlightAware
11:28PM 22.4280 90.4000 98° East 527 606 35,000  Level FlightAware
11:29PM 22.4140 90.5200 97° East 524 603 35,000  Level FlightAware
11:30PM 22.4000 90.6330 98° East 524 603 35,000  Level FlightAware
11:31PM 22.3880 90.7370 97° East 524 603 35,000  Level FlightAware
11:31PM 22.3760 90.8400 97° East 524 603 35,000  Level FlightAware
11:32PM 22.3610 90.9620 98° East 524 603 35,000  Level FlightAware
11:33PM 22.3500 91.0480 98° East 525 604 35,000  Level FlightAware
11:33PM 22.3360 91.1640 97° East 525 604 35,000  Level FlightAware
11:34PM 22.3240 91.2700 97° East 525 604 35,000  Level FlightAware
11:35PM 22.3090 91.3860 98° East 523 602 35,000  Level FlightAware
11:36PM 22.2950 91.5060 97° East 524 603 35,000  Level FlightAware
11:36PM 22.2790 91.6460 97° East 524 603 35,000  Level FlightAware
11:37PM 22.2670 91.7490 97° East 525 604 35,000  Level FlightAware
11:38PM 22.2610 91.8730 93° East 524 603 35,000  Level FlightAware
11:39PM 22.2820 92.0080 80° East 523 602 35,000  Level FlightAware
11:39PM 22.2970 92.1120 81° East 521 600 35,000  Level FlightAware
11:40PM 22.3140 92.2290 81° East 518 596 35,000  Level FlightAware
11:41PM 22.3240 92.3040 82° East 517 595 35,000  Level FlightAware
11:41PM 22.3380 92.4070 82° East 518 596 35,000  Level FlightAware
11:42PM 22.3490 92.4860 81° East 518 596 35,000  Level FlightAware
11:43PM 22.3670 92.6230 82° East 515 593 35,000  Level FlightAware
11:43PM 22.3770 92.6950 81° East 513 590 35,000  Level FlightAware
11:44PM 22.3940 92.8180 81° East 508 585 35,000  Level FlightAware
11:45PM 22.4120 92.9490 82° East 506 582 35,000  Level FlightAware
11:46PM 22.4270 93.0590 82° East 504 580 35,000  Level FlightAware
11:46PM 22.4420 93.1600 81° East 504 580 35,000  Level FlightAware
11:47PM 22.4540 93.2450 81° East 504 580 35,000  Level FlightAware
11:48PM 22.4720 93.3880 82° East 506 582 35,000  Level FlightAware
11:49PM 22.4840 93.4840 82° East 504 580 35,000  Level FlightAware
11:49PM 22.4990 93.5840 81° East 504 580 35,000  Level FlightAware
11:50PM 22.5110 93.6680 81° East 504 580 35,000  Level FlightAware
11:51PM 22.5240 93.7530 81° East 504 580 35,000  Level FlightAware
11:51PM 22.5360 93.8380 81° East 504 580 35,000  Level FlightAware
11:52PM 22.5490 93.9230 81° East 504 580 35,000  Level FlightAware
11:53PM 22.5640 94.0290 81° East 504 580 35,000  Level FlightAware
11:53PM 22.5760 94.1130 81° East 504 580 35,000  Level FlightAware
11:54PM 22.5890 94.1980 81° East 504 580 35,000  Level FlightAware
11:55PM 22.6010 94.2830 81° East 504 580 35,000  Level FlightAware
11:56PM 22.6170 94.3890 81° East 504 580 35,000  Level FlightAware
11:56PM 22.6290 94.4740 81° East 504 580 35,000  Level FlightAware
11:57PM 22.6420 94.5590 81° East 504 580 35,000  Level FlightAware
11:58PM 22.6540 94.6440 81° East 504 580 35,000  Level FlightAware
11:58PM 22.6660 94.7280 81° East 504 580 35,000  Level FlightAware
12:01AM 22.7946 94.9954 62° Northeast  Level Estimated
12:02AM 22.8525 95.1162 63° Northeast  Level Estimated
12:03AM 22.9103 95.2371 63° Northeast  Level Estimated
12:04AM 22.9680 95.3581 63° Northeast  Level Estimated
12:05AM 23.0256 95.4792 63° Northeast  Level Estimated
12:06AM 23.0831 95.6004 63° Northeast  Level Estimated
12:07AM 23.1405 95.7218 63° Northeast  Level Estimated
12:08AM 23.1978 95.8432 63° Northeast  Level Estimated
12:09AM 23.2550 95.9647 63° Northeast  Level Estimated
12:10AM 23.3122 96.0863 63° Northeast  Level Estimated
12:11AM 23.3692 96.2081 63° Northeast  Level Estimated
12:12AM 23.4262 96.3299 63° Northeast  Level Estimated
12:13AM 23.4830 96.4519 63° Northeast  Level Estimated
12:14AM 23.5398 96.5739 63° Northeast  Level Estimated
12:15AM 23.5964 96.6961 63° Northeast  Level Estimated
12:16AM 23.6530 96.8183 63° Northeast  Level Estimated
12:17AM 23.7095 96.9407 63° Northeast  Level Estimated
12:18AM 23.7659 97.0631 63° Northeast  Level Estimated
12:19AM 23.8221 97.1857 63° Northeast  Level Estimated
12:20AM 23.8783 97.3084 63° Northeast  Level Estimated
12:21AM 23.9344 97.4312 63° Northeast  Level Estimated
12:22AM 23.9904 97.5541 63° Northeast  Level Estimated
12:23AM 24.0463 97.6771 64° Northeast  Level Estimated
12:24AM 24.1021 97.8002 64° Northeast  Level Estimated
12:25AM 24.1578 97.9234 64° Northeast  Level Estimated
12:26AM 24.2134 98.0468 64° Northeast  Level Estimated
12:27AM 24.2688 98.1702 64° Northeast  Level Estimated
12:28AM 24.3242 98.2937 64° Northeast  Level Estimated
12:29AM 24.3795 98.4174 64° Northeast  Level Estimated
12:30AM 24.4347 98.5411 64° Northeast  Level Estimated
12:31AM 24.4898 98.6650 64° Northeast  Level Estimated
12:32AM 24.5448 98.7890 64° Northeast  Level Estimated
12:33AM 24.5997 98.9130 64° Northeast  Level Estimated
12:34AM 24.6545 99.0372 64° Northeast  Level Estimated
12:35AM 24.7092 99.1615 64° Northeast  Level Estimated
12:36AM 24.7637 99.2859 64° Northeast  Level Estimated
12:37AM 24.8182 99.4105 64° Northeast  Level Estimated
12:38AM 24.8726 99.5351 64° Northeast  Level Estimated
12:39AM 24.9269 99.6598 64° Northeast  Level Estimated
12:40AM 24.9810 99.7847 64° Northeast  Level Estimated
12:41AM 25.0351 99.9096 64° Northeast  Level Estimated
12:42AM 25.0891 100.0347 65° Northeast  Level Estimated
12:43AM 25.1429 100.1599 65° Northeast  Level Estimated
12:44AM 25.1967 100.2852 65° Northeast  Level Estimated
12:45AM 25.2503 100.4106 65° Northeast  Level Estimated
12:46AM 25.3039 100.5361 65° Northeast  Level Estimated
12:47AM 25.3573 100.6617 65° Northeast  Level Estimated
12:48AM 25.4106 100.7874 65° Northeast  Level Estimated
12:49AM 25.4639 100.9133 65° Northeast  Level Estimated
12:50AM 25.5170 101.0392 65° Northeast  Level Estimated
12:51AM 25.5700 101.1653 65° Northeast  Level Estimated
12:52AM 25.6229 101.2915 65° Northeast  Level Estimated
12:53AM 25.6756 101.4178 65° Northeast  Level Estimated
12:54AM 25.7283 101.5442 65° Northeast  Level Estimated
12:55AM 25.7809 101.6707 65° Northeast  Level Estimated
12:56AM 25.8334 101.7973 65° Northeast  Level Estimated
12:57AM 25.8857 101.9240 65° Northeast  Level Estimated
12:58AM 25.9380 102.0509 65° Northeast  Level Estimated
12:59AM 25.9901 102.1778 65° Northeast  Level Estimated
01:00AM 26.0421 102.3049 65° Northeast  Level Estimated
01:01AM 26.0940 102.4321 66° East  Level Estimated
01:02AM 26.1458 102.5594 66° East  Level Estimated
01:03AM 26.1975 102.6868 66° East  Level Estimated
01:04AM 26.2491 102.8143 66° East  Level Estimated
01:05AM 26.3005 102.9420 66° East  Level Estimated
01:06AM 26.3519 103.0697 66° East  Level Estimated
01:07AM 26.4031 103.1976 66° East  Level Estimated
01:08AM 26.4542 103.3256 66° East  Level Estimated
01:09AM 26.5052 103.4537 66° East  Level Estimated
01:10AM 26.5561 103.5818 66° East  Level Estimated
01:11AM 26.6069 103.7102 66° East  Level Estimated
01:12AM 26.6576 103.8386 66° East  Level Estimated
01:13AM 26.7081 103.9671 66° East  Level Estimated
01:14AM 26.7585 104.0958 66° East  Level Estimated
01:15AM 26.8088 104.2246 66° East  Level Estimated
01:16AM 26.8590 104.3535 66° East  Level Estimated
01:17AM 26.9091 104.4825 66° East  Level Estimated
01:18AM 26.9591 104.6116 67° East  Level Estimated
01:19AM 27.0089 104.7408 67° East  Level Estimated
01:20AM 27.0586 104.8702 67° East  Level Estimated
01:21AM 27.1082 104.9996 67° East  Level Estimated
01:22AM 27.1577 105.1292 67° East  Level Estimated
01:23AM 27.2071 105.2589 67° East  Level Estimated
01:24AM 27.2564 105.3887 67° East  Level Estimated
01:25AM 27.3055 105.5186 67° East  Level Estimated
01:26AM 27.3545 105.6487 67° East  Level Estimated
01:27AM 27.4034 105.7788 67° East  Level Estimated
01:28AM 27.4522 105.9091 67° East  Level Estimated
01:29AM 27.5008 106.0394 67° East  Level Estimated
01:30AM 27.5493 106.1699 67° East  Level Estimated
01:31AM 27.5977 106.3005 67° East  Level Estimated
01:32AM 27.6460 106.4313 67° East  Level Estimated
01:33AM 27.6942 106.5621 67° East  Level Estimated
01:34AM 27.7422 106.6931 67° East  Level Estimated
01:35AM 27.7901 106.8241 68° East  Level Estimated
01:36AM 27.8379 106.9553 68° East  Level Estimated
01:37AM 27.8856 107.0866 68° East  Level Estimated
01:38AM 27.9331 107.2180 68° East  Level Estimated
01:39AM 27.9805 107.3496 68° East  Level Estimated
01:40AM 28.0278 107.4812 68° East  Level Estimated
01:41AM 28.0750 107.6130 68° East  Level Estimated
01:42AM 28.1220 107.7449 68° East  Level Estimated
01:43AM 28.1689 107.8769 68° East  Level Estimated
01:44AM 28.2157 108.0090 68° East  Level Estimated
01:45AM 28.2624 108.1412 68° East  Level Estimated
01:46AM 28.3089 108.2736 68° East  Level Estimated
01:47AM 28.3553 108.4060 68° East  Level Estimated
01:48AM 28.4016 108.5386 68° East  Level Estimated
01:49AM 28.4477 108.6713 68° East  Level Estimated
01:50AM 28.4938 108.8041 68° East  Level Estimated
01:51AM 28.5396 108.9370 69° East  Level Estimated
01:52AM 28.5854 109.0700 69° East  Level Estimated
01:53AM 28.6310 109.2032 69° East  Level Estimated
01:54AM 28.6765 109.3365 69° East  Level Estimated
01:55AM 28.7219 109.4698 69° East  Level Estimated
01:56AM 28.7672 109.6033 69° East  Level Estimated
01:57AM 28.8123 109.7370 69° East  Level Estimated
01:58AM 28.8572 109.8707 69° East  Level Estimated
01:59AM 28.9021 110.0045 69° East  Level Estimated
02:00AM 28.9468 110.1385 69° East  Level Estimated
02:01AM 28.9914 110.2726 69° East  Level Estimated
02:02AM 29.0358 110.4068 69° East  Level Estimated
02:03AM 29.0801 110.5411 69° East  Level Estimated
02:04AM 29.1243 110.6755 69° East  Level Estimated
02:05AM 29.1683 110.8100 69° East  Level Estimated
02:06AM 29.2122 110.9447 69° East  Level Estimated
02:07AM 29.2560 111.0795 70° East  Level Estimated
02:08AM 29.2997 111.2143 70° East  Level Estimated
02:09AM 29.3431 111.3493 70° East  Level Estimated
02:10AM 29.3865 111.4845 70° East  Level Estimated
02:11AM 29.4298 111.6197 70° East  Level Estimated
02:12AM 29.4728 111.7550 70° East  Level Estimated
02:13AM 29.5158 111.8905 70° East  Level Estimated
02:14AM 29.5586 112.0261 70° East  Level Estimated
02:15AM 29.6013 112.1618 70° East  Level Estimated
02:16AM 29.6438 112.2976 70° East  Level Estimated
02:17AM 29.6862 112.4335 70° East  Level Estimated
02:18AM 29.7285 112.5695 70° East  Level Estimated
02:19AM 29.7706 112.7057 70° East  Level Estimated
02:20AM 29.8126 112.8419 70° East  Level Estimated
02:21AM 29.8545 112.9783 70° East  Level Estimated
02:22AM 29.8962 113.1148 71° East  Level Estimated
02:23AM 29.9378 113.2514 71° East  Level Estimated
02:24AM 29.9792 113.3881 71° East  Level Estimated
02:25AM 30.0205 113.5249 71° East  Level Estimated
02:26AM 30.0616 113.6619 71° East  Level Estimated
02:27AM 30.1026 113.7990 71° East  Level Estimated
02:28AM 30.1435 113.9361 71° East  Level Estimated
02:29AM 30.1842 114.0734 71° East  Level Estimated
02:30AM 30.2247 114.2108 71° East  Level Estimated
02:31AM 30.2652 114.3483 71° East  Level Estimated
02:32AM 30.3055 114.4860 71° East  Level Estimated
02:33AM 30.3456 114.6237 71° East  Level Estimated
02:34AM 30.3856 114.7616 71° East  Level Estimated
02:35AM 30.4254 114.8995 71° East  Level Estimated
02:36AM 30.4652 115.0376 72° East  Level Estimated
02:37AM 30.5047 115.1758 72° East  Level Estimated
02:38AM 30.5441 115.3141 72° East  Level Estimated
02:39AM 30.5834 115.4525 72° East  Level Estimated
02:39AM 31.6580 118.4980 72° East 555 639 37,100  Level FlightAware
02:40AM 30.6225 115.5910 72° East  Level Estimated
02:40AM 31.6540 118.6370 92° East 554 638 37,100  Level FlightAware
02:41AM 31.6500 118.7620 92° East 554 638 37,100  Level FlightAware
02:41AM 31.6450 118.8980 92° East 555 639 37,100  Level FlightAware
02:42AM 31.6420 119.0060 92° East 556 640 37,100  Level FlightAware
02:43AM 31.6370 119.1290 93° East 556 640 37,100  Level FlightAware
02:43AM 31.6340 119.2610 91° East 559 643 37,100  Level FlightAware
02:44AM 31.6280 119.3870 93° East 559 643 37,100  Level FlightAware
02:45AM 31.6260 119.5090 91° East 559 643 37,100  Level FlightAware
02:45AM 31.6190 119.6390 94° East 558 642 37,100  Level FlightAware
02:46AM 31.6170 119.7580 91° East 558 642 37,100  Level FlightAware
02:47AM 31.6110 119.8960 93° East 558 642 37,100  Level FlightAware
02:48AM 31.6090 119.9990 91° East 558 642 37,100  Level FlightAware
02:48AM 31.6080 120.1020 91° East 558 642 37,100  Level FlightAware
02:49AM 31.5920 120.2750 96° East 554 638 37,100  Level FlightAware
02:50AM 31.5680 120.4010 103° East 557 641 37,100  Level FlightAware
02:50AM 31.5290 120.5300 109° East 559 643 37,100  Level FlightAware
02:51AM 31.4940 120.6440 110° East 558 642 37,100  Level FlightAware
02:52AM 31.4550 120.7740 109° East 558 642 37,100  Level FlightAware
02:52AM 31.4210 120.8860 110° East 560 644 37,100  Level FlightAware
02:53AM 31.3850 121.0010 110° East 560 644 37,100  Level FlightAware
02:54AM 31.3480 121.1250 109° East 560 644 37,100  Level FlightAware
02:54AM 31.3190 121.2230 109° East 560 644 37,100  Level FlightAware
02:55AM 31.2750 121.3660 110° East 563 648 37,100  Level FlightAware
02:56AM 31.2430 121.4710 110° East 562 647 37,100  Level FlightAware
02:57AM 31.2050 121.5910 110° East 561 646 37,100  Level FlightAware
02:57AM 31.1650 121.7220 110° East 561 646 37,100  Level FlightAware
02:58AM 31.1220 121.8620 110° East 560 644 37,100  Level FlightAware
02:59AM 31.0790 121.9970 110° East 560 644 37,100  Level FlightAware
03:00AM 31.0450 122.1070 110° East 559 643 37,100  Level FlightAware
03:00AM 31.0150 122.2030 110° East 559 643 37,100  Level FlightAware
03:01AM 31.0000 122.3420 97° East 555 639 37,100  Level FlightAware
03:02AM 31.0000 122.4760 90° East 555 639 37,100  Level FlightAware
03:02AM 31.0000 122.5670 90° East 554 638 37,100  Level FlightAware
03:03AM 31.0000 122.7350 90° East 554 638 37,100 -240 Level FlightAware
03:04AM 31.0000 122.8640 90° East 555 639 36,800 -1,320 Descending FlightAware
03:05AM 31.0070 122.9740 86° East 547 629 35,400 -2,520 Descending FlightAware
03:05AM 31.0540 123.0880 64° Northeast 541 623 33,300 -2,520 Descending FlightAware
03:06AM 31.1090 123.1790 55° Northeast 552 635 32,100 -1,680 Descending FlightAware
03:07AM 31.1830 123.2980 54° Northeast 533 613 31,000 -660 Descending FlightAware
03:08AM 31.2510 123.4100 55° Northeast 533 613 31,000  Level FlightAware
03:08AM 31.3010 123.4890 53° Northeast 533 613 31,000  Level FlightAware
03:09AM 31.3620 123.5880 54° Northeast 533 613 31,000  Level FlightAware
03:10AM 31.4110 123.6680 54° Northeast 533 613 31,000 60 Level FlightAware
03:10AM 31.4740 123.8200 64° Northeast 31,000 120 Level FlightAware
03:13AM 31.5696 124.1264 70° East  Level Estimated
03:14AM 31.6125 124.2649 70° East  Level Estimated
03:15AM 31.6552 124.4035 70° East  Level Estimated
03:16AM 31.6978 124.5422 70° East  Level Estimated
03:17AM 31.7403 124.6810 70° East  Level Estimated
03:18AM 31.7826 124.8199 70° East  Level Estimated
03:19AM 31.8247 124.9590 70° East  Level Estimated
03:20AM 31.8667 125.0982 70° East  Level Estimated
03:21AM 31.9085 125.2375 70° East  Level Estimated
03:22AM 31.9502 125.3770 71° East  Level Estimated
03:23AM 31.9917 125.5166 71° East  Level Estimated
03:24AM 32.0331 125.6563 71° East  Level Estimated
03:25AM 32.0743 125.7962 71° East  Level Estimated
03:26AM 32.1154 125.9361 71° East  Level Estimated
03:27AM 32.1563 126.0762 71° East  Level Estimated
03:28AM 32.1971 126.2164 71° East  Level Estimated
03:29AM 32.2377 126.3568 71° East  Level Estimated
03:30AM 32.2781 126.4972 71° East  Level Estimated
03:31AM 32.3184 126.6378 71° East  Level Estimated
03:32AM 32.3586 126.7785 71° East  Level Estimated
03:33AM 32.3986 126.9194 71° East  Level Estimated
03:34AM 32.4384 127.0604 71° East  Level Estimated
03:35AM 32.4781 127.2014 72° East  Level Estimated
03:36AM 32.5176 127.3427 72° East  Level Estimated
03:37AM 32.5569 127.4840 72° East  Level Estimated
03:38AM 32.5961 127.6255 72° East  Level Estimated
03:39AM 32.6352 127.7671 72° East  Level Estimated
03:40AM 32.6740 127.9088 72° East  Level Estimated
03:41AM 32.7128 128.0506 72° East  Level Estimated
03:42AM 32.7513 128.1926 72° East  Level Estimated
03:43AM 32.7897 128.3346 72° East  Level Estimated
03:43AM 32.8440 129.5760 72° East 581 669 35,000  Level FlightAware
03:43AM 32.8810 129.6950 70° East 583 671 35,000  Level FlightAware
03:44AM 32.9180 129.8090 69° East 582 670 35,000  Level FlightAware
03:45AM 32.9570 129.9290 69° East 585 673 35,000  Level FlightAware
03:45AM 33.0020 130.0680 69° East 587 676 35,000  Level FlightAware
03:46AM 33.0470 130.2050 69° East 589 678 35,000  Level FlightAware
03:47AM 33.0860 130.3240 69° East 592 681 35,000  Level FlightAware
03:48AM 33.1300 130.4630 69° East 596 686 35,000  Level FlightAware
03:48AM 33.1700 130.5860 69° East 600 690 35,000  Level FlightAware
03:49AM 33.2150 130.7260 69° East 603 694 35,000  Level FlightAware
03:50AM 33.2550 130.8520 69° East 606 697 35,000  Level FlightAware
03:50AM 33.2950 130.9780 69° East 609 701 35,000  Level FlightAware
03:51AM 33.3390 131.1180 69° East 610 702 35,000  Level FlightAware
03:52AM 33.3800 131.2490 69° East 612 704 35,000  Level FlightAware
03:52AM 33.4190 131.3760 70° East 615 708 35,000  Level FlightAware
03:53AM 33.4650 131.5230 69° East 626 720 35,000  Level FlightAware
03:54AM 33.5050 131.6530 70° East 634 730 35,000  Level FlightAware
03:54AM 33.5460 131.7850 70° East 636 732 35,000  Level FlightAware
03:55AM 33.5890 131.9240 70° East 635 731 35,000  Level FlightAware
03:56AM 33.6380 132.0830 70° East 631 726 35,000  Level FlightAware
03:57AM 33.6690 132.1880 70° East 623 717 35,000 -1,500 Level FlightAware
03:58AM 33.7290 132.3850 70° East 613 705 32,700 -2,400 Descending FlightAware
03:58AM 33.7710 132.5250 70° East 602 693 30,900 -2,280 Descending FlightAware
03:59AM 33.8040 132.6360 70° East 586 674 29,700 -2,040 Descending FlightAware
04:00AM 33.8450 132.7720 70° East 570 656 28,200 -1,980 Descending FlightAware
04:00AM 33.8840 132.9020 70° East 550 633 26,800 -1,920 Descending FlightAware
04:01AM 33.9180 133.0180 71° East 539 620 25,500 -1,980 Descending FlightAware
04:02AM 33.9510 133.1300 70° East 529 609 24,200 -1,860 Descending FlightAware
04:02AM 33.9840 133.2420 70° East 515 593 22,900 -1,920 Descending FlightAware
04:03AM 34.0180 133.3600 71° East 505 581 21,500 -1,980 Descending FlightAware
04:04AM 34.0480 133.4620 70° East 472 543 20,300 -1,800 Descending FlightAware
04:04AM 34.0760 133.5580 71° East 459 528 19,100 -1,860 Descending FlightAware
04:05AM 34.1090 133.6730 71° East 444 511 17,700 -1,800 Descending FlightAware
04:06AM 34.1370 133.7760 72° East 432 497 16,400 -1,200 Descending FlightAware
04:07AM 34.1460 133.8560 82° East 431 496 16,000 -300 Descending FlightAware
04:07AM 34.1560 133.9380 82° East 431 496 16,000  Level FlightAware
04:08AM 34.1650 134.0190 82° East 431 496 16,000  Level FlightAware
04:09AM 34.1770 134.1200 82° East 431 496 16,000 -2,520 Level FlightAware
04:09AM 34.1690 134.2530 94° East 376 433 12,300 -3,300 Descending FlightAware
04:10AM 34.1730 134.3340 87° East 354 407 11,600 -960 Descending FlightAware
04:11AM 34.1770 134.4190 87° East 325 374 11,000 -900 Descending FlightAware
04:12AM 34.1800 134.4880 87° East 311 358 10,400 -960 Descending FlightAware
04:12AM 34.1820 134.5410 87° East 304 350 9,900 -840 Descending FlightAware
04:12AM 34.1830 134.5690 88° East 301 346 9,700 -600 Descending FlightAware
04:13AM 34.1860 134.6070 85° East 300 345 9,500 -600 Descending FlightAware
04:13AM 34.1860 134.6560 90° East 294 338 9,200 -660 Descending FlightAware
04:14AM 34.1830 134.6960 95° East 286 329 8,900 -780 Descending FlightAware
04:14AM 34.1780 134.7440 97° East 274 315 8,500 -780 Descending FlightAware
04:14AM 34.1760 134.7590 99° East 274 315 8,400 -1,080 Descending FlightAware
04:15AM 34.1790 134.8030 85° East 262 302 7,800 -1,020 Descending FlightAware
04:15AM 34.1870 134.8450 77° East 249 287 7,400 -720 Descending FlightAware
04:16AM 34.1960 134.8620 57° Northeast 232 267 7,300 -480 Descending FlightAware
04:16AM 34.2120 134.8850 50° Northeast 217 250 7,100 -960 Descending FlightAware
04:16AM 34.2280 134.9080 50° Northeast 218 251 6,500 -1,440 Descending FlightAware
04:17AM 34.2480 134.9380 51° Northeast 221 254 5,800 -1,320 Descending FlightAware
04:17AM 34.2670 134.9670 52° Northeast 220 253 5,200 -1,200 Descending FlightAware
04:18AM 34.2870 134.9950 49° Northeast 216 249 4,600 -1,140 Descending FlightAware
04:18AM 34.3000 135.0150 52° Northeast 193 222 4,200 -1,080 Descending FlightAware
04:19AM 34.3140 135.0350 50° Northeast 184 212 3,700 -1,140 Descending FlightAware
04:19AM 34.3330 135.0640 52° Northeast 179 206 3,100 -1,020 Descending FlightAware
04:20AM 34.3460 135.0840 52° Northeast 174 200 2,700 -600 Descending FlightAware
04:21AM 34.3730 135.1240 51° Northeast 169 194 2,300 -480 Descending FlightAware
04:23AM 34.4273 135.2441 61° Northeast  Level Estimated
04:24AM 34.4273 135.2441 158° South  Level Estimated
04:25AM 34.4273 135.2441 158° South  Level Estimated
04:26AM 34.4273 135.2441 158° South  Level Estimated
04:27AM 34.4273 135.2441 158° South  Level Estimated
04:28AM 34.4273 135.2441 158° South  Level Estimated
04:29AM 34.4273 135.2441 158° South  Level Estimated
04:30AM 34.4273 135.2441 158° South  Level Estimated
04:31AM 34.4273 135.2441 158° South  Level Estimated
04:32AM 34.4273 135.2441 158° South  Level Estimated
04:33AM 34.4273 135.2441 158° South  Level Estimated
04:34AM 34.4273 135.2441 158° South  Level Estimated
04:35AM 34.4273 135.2441 158° South  Level Estimated
04:36AM 34.4273 135.2441 158° South  Level Estimated